Latest Weather Observations for Beaudesert AWS

IDQ60901

Issued at 9:01 pm EST Saturday 30 July 2016 (issued every 10 minutes, with the page automatically refreshed every 10 minutes)

About weather observations | Map of Brisbane area stations | Latest observations for Brisbane area | Other Formats
Station Details ID: 040983 Name: BEAUDESERT DRUMLEY STREET Lat: -27.97 Lon: 152.99 Height: 47.81 m
Data from the previous 72 hours. | See also: Recent months at Beaudesert AWS
Date/Time
EST
Temp
°C
App
Temp
°C
Dew
Point
°C
Rel
Hum
%
Delta-T
°C
Wind Press
QNH
hPa
Press
MSL
hPa
Rain since
9am
mm
Dir  Spd
km/h
Gust
km/h
Spd
kts
Gust
kts
30/09:00pm 9.4 8.9 7.7 89 0.8 CALM 0 0 0 0 1020.9 1020.9 0.0
30/08:30pm 9.8 8.9 7.9 88 0.9 E 2 2 1 1 1020.8 1020.8 0.0
30/08:00pm 9.7 9.0 7.0 83 1.3 CALM 0 0 0 0 1020.6 1020.6 0.0
30/07:30pm 11.2 10.8 8.1 81 1.5 CALM 0 0 0 0 1020.3 1020.3 0.0
30/07:00pm 11.9 11.1 6.4 69 2.6 CALM 0 2 0 1 1020.0 1020.0 0.0
30/06:30pm 15.3 13.9 8.8 65 3.3 ENE 6 9 3 5 1019.5 1019.5 0.0
30/06:00pm 15.9 14.1 7.9 59 4.0 ENE 7 11 4 6 1019.1 1019.1 0.0
30/05:30pm 17.9 16.1 7.3 50 5.3 NE 6 7 3 4 1018.7 1018.7 0.0
30/05:00pm 19.7 17.6 6.8 43 6.5 ENE 7 13 4 7 1018.4 1018.4 0.0
30/04:30pm 21.3 19.2 6.0 37 7.7 NE 6 9 3 5 1018.1 1018.1 0.0
30/04:00pm 22.1 20.2 7.5 39 7.6 NNE 7 15 4 8 1018.0 1018.0 0.0
30/03:30pm 22.4 20.7 7.4 38 7.8 ENE 6 13 3 7 1017.9 1017.9 0.0
30/03:00pm 22.8 21.3 7.0 36 8.2 NNE 4 9 2 5 1017.9 1017.9 0.0
30/02:30pm 22.8 21.6 8.1 39 7.8 NE 4 9 2 5 1018.1 1018.1 0.0
30/02:00pm 22.5 21.3 7.9 39 7.6 WSW 4 9 2 5 1018.1 1018.1 0.0
30/01:30pm 22.6 21.0 8.0 39 7.7 NW 6 11 3 6 1018.2 1018.2 0.0
30/01:00pm 21.8 20.0 7.2 39 7.5 W 6 11 3 6 1018.6 1018.6 0.0
30/12:30pm 21.2 19.5 7.4 41 7.1 SSW 6 9 3 5 1019.0 1019.0 0.0
30/12:00pm 20.6 18.7 6.5 40 7.1 SW 6 9 3 5 1019.5 1019.5 0.0
30/11:30am 19.8 18.3 6.9 43 6.5 SW 4 6 2 3 1020.1 1020.1 0.0
30/11:00am 17.8 16.1 7.5 51 5.2 WSW 6 9 3 5 1020.7 1020.7 0.0
30/10:30am 16.2 15.2 8.7 61 3.8 WSW 4 6 2 3 1021.1 1021.1 0.0
30/10:00am 14.6 13.8 8.1 65 3.2 SW 2 6 1 3 1021.4 1021.4 0.0
30/09:30am 12.4 11.7 8.7 78 1.8 SW 2 4 1 2 1021.6 1021.7 0.0
30/09:00am 11.4 11.1 8.6 83 1.4 CALM 0 0 0 0 1021.7 1021.8 0.0
30/08:30am 8.2 7.5 6.8 91 0.6 CALM 0 4 0 2 1021.7 1021.8 0.0
30/08:00am 5.3 4.2 5.2 99 0.0 CALM 0 0 0 0 1021.6 1021.7 0.0
30/07:30am 3.9 2.5 3.8 99 0.0 CALM 0 4 0 2 1021.3 1021.3 0.0
30/07:00am 1.9 0.1 1.5 97 0.2 CALM 0 0 0 0 1021.1 1021.1 0.0
30/06:30am 2.9 1.4 2.8 99 0.0 CALM 0 0 0 0 1020.8 1020.8 0.0
30/06:00am 2.4 0.7 1.8 96 0.2 CALM 0 0 0 0 1020.4 1020.4 0.0
30/05:30am 3.0 1.4 2.3 95 0.3 CALM 0 0 0 0 1020.2 1020.2 0.0
30/05:00am 3.7 2.2 3.0 95 0.3 CALM 0 0 0 0 1020.1 1020.1 0.0
30/04:30am 4.3 2.9 3.6 95 0.3 CALM 0 2 0 1 1019.8 1019.8 0.0
30/04:00am 4.8 3.2 4.5 98 0.1 ESE 2 2 1 1 1019.8 1019.8 0.0
30/03:30am 4.4 2.3 3.7 95 0.3 ESE 4 6 2 3 1019.9 1019.9 0.0
30/03:00am 5.7 4.4 4.3 91 0.6 CALM 0 4 0 2 1019.9 1019.9 0.0
30/02:30am 6.2 4.7 5.0 92 0.5 ESE 2 4 1 2 1020.0 1020.0 0.0
30/02:00am 5.6 3.9 4.1 90 0.6 S 2 2 1 1 1020.4 1020.4 0.0
30/01:30am 6.9 5.0 4.7 86 1.0 ESE 4 6 2 3 1020.6 1020.6 0.0
30/01:00am 7.2 5.3 4.9 85 1.0 SE 4 6 2 3 1020.8 1020.8 0.0
30/12:30am 7.6 6.5 5.1 84 1.1 CALM 0 2 0 1 1020.9 1020.9 0.0
30/12:00am 8.1 6.7 5.4 83 1.2 SE 2 4 1 2 1020.9 1020.9 0.0
 
Date/Time
EST
Temp
°C
App
Temp
°C
Dew
Point
°C
Rel
Hum
%
Delta-T
°C
Wind Press
QNH
hPa
Press
MSL
hPa
Rain since
9am
mm
Dir  Spd
km/h
Gust
km/h
Spd
kts
Gust
kts
29/11:30pm 8.4 6.6 5.5 82 1.3 SE 4 6 2 3 1021.2 1021.2 0.0
29/11:00pm 9.2 7.9 6.1 81 1.4 SE 2 4 1 2 1021.2 1021.2 0.0
29/10:30pm 8.8 7.3 6.6 86 1.0 SE 4 6 2 3 1021.2 1021.2 0.0
29/10:00pm 7.7 6.5 6.3 91 0.6 SE 2 4 1 2 1021.1 1021.1 0.0
29/09:30pm 7.5 6.5 5.8 89 0.8 CALM 0 0 0 0 1020.9 1020.9 0.0
29/09:00pm 7.9 7.0 6.2 89 0.8 CALM 0 0 0 0 1021.0 1021.0 0.0
29/08:30pm 8.6 7.7 6.1 84 1.1 CALM 0 0 0 0 1020.7 1020.7 0.0
29/08:00pm 9.1 8.1 5.7 79 1.5 CALM 0 0 0 0 1020.6 1020.6 0.0
29/07:30pm 9.8 8.8 5.4 74 2.0 CALM 0 0 0 0 1020.5 1020.5 0.0
29/07:00pm 11.6 10.8 6.3 70 2.5 CALM 0 0 0 0 1020.1 1020.1 0.0
29/06:30pm 12.9 12.1 6.3 64 3.1 CALM 0 2 0 1 1019.7 1019.7 0.0
29/06:00pm 16.2 14.2 6.1 51 4.9 NE 6 6 3 3 1019.5 1019.5 0.0
29/05:30pm 17.9 15.8 5.8 45 5.9 ENE 6 6 3 3 1019.2 1019.2 0.0
29/05:00pm 20.3 18.4 5.1 37 7.4 N 4 6 2 3 1019.0 1019.0 0.0
29/04:30pm 21.7 19.4 4.7 33 8.4 NNW 6 9 3 5 1018.9 1018.9 0.0
29/04:00pm 22.4 20.2 5.4 33 8.5 NW 6 9 3 5 1019.1 1019.1 0.0
29/03:30pm 22.3 19.6 2.9 28 9.3 WNW 6 13 3 7 1019.2 1019.2 0.0
29/03:00pm 22.8 20.4 4.3 30 9.1 W 6 11 3 6 1019.3 1019.3 0.0
29/02:30pm 22.4 19.1 2.5 27 9.4 NNW 9 19 5 10 1019.6 1019.6 0.0
29/02:00pm 22.2 20.1 3.8 30 8.9 NW 4 17 2 9 1019.8 1019.8 0.0
29/01:30pm 22.4 20.0 5.4 33 8.5 NNW 7 15 4 8 1020.1 1020.1 0.0
29/01:00pm 22.3 20.2 5.7 34 8.3 NNW 6 11 3 6 1020.5 1020.5 0.0
29/12:30pm 21.3 20.2 8.6 44 6.7 WSW 4 9 2 5 1021.2 1021.2 0.0
29/12:00pm 20.8 19.3 9.1 47 6.2 NW 7 11 4 6 1021.9 1022.0 0.0
29/11:30am 19.6 18.8 9.5 52 5.4 NW 4 7 2 4 1022.6 1022.7 0.0
29/11:00am 18.4 17.4 8.7 53 5.0 NNW 4 7 2 4 1023.3 1023.3 0.0
29/10:30am 16.7 16.6 9.4 62 3.8 CALM 0 4 0 2 1023.6 1023.6 0.0
29/10:00am 15.6 15.4 10.4 71 2.7 NW 2 4 1 2 1024.1 1024.1 0.0
29/09:30am 12.6 12.4 9.1 79 1.8 CALM 0 4 0 2 1024.3 1024.3 0.0
29/09:00am 11.7 11.5 9.1 84 1.3 CALM 0 0 0 0 1024.6 1024.6 0.0
29/08:30am 8.4 7.7 7.0 91 0.7 CALM 0 0 0 0 1024.5 1024.5 0.0
29/08:00am 6.4 5.6 6.3 99 0.0 CALM 0 0 0 0 1024.4 1024.4 0.0
29/07:30am 5.0 3.5 4.9 99 0.0 S 2 6 1 3 1024.1 1024.1 0.0
29/07:00am 3.8 2.4 3.7 99 0.0 CALM 0 0 0 0 1024.1 1024.1 0.0
29/06:30am 4.4 2.8 4.3 99 0.0 E 2 6 1 3 1023.9 1023.9 0.0
29/06:00am 4.3 3.0 4.2 99 0.0 CALM 0 0 0 0 1023.7 1023.7 0.0
29/05:30am 3.8 2.0 3.5 98 0.1 ESE 2 4 1 2 1023.2 1023.2 0.0
29/05:00am 4.3 3.0 3.9 97 0.2 CALM 0 2 0 1 1022.9 1022.9 0.0
29/04:30am 4.9 3.7 4.6 98 0.1 CALM 0 0 0 0 1022.7 1022.8 0.0
29/04:00am 5.1 3.6 4.8 98 0.1 SE 2 4 1 2 1022.6 1022.7 0.0
29/03:30am 5.3 3.8 4.9 97 0.2 E 2 2 1 1 1022.9 1022.9 0.0
29/03:00am 5.4 3.8 4.7 95 0.3 S 2 4 1 2 1023.0 1023.0 0.0
29/02:30am 5.7 4.2 4.8 94 0.4 SE 2 2 1 1 1022.7 1022.8 0.0
29/02:00am 6.3 5.3 5.7 96 0.3 CALM 0 4 0 2 1023.0 1023.0 0.0
29/01:30am 6.2 5.1 5.0 92 0.5 CALM 0 0 0 0 1023.0 1023.0 0.0
29/01:00am 7.3 6.0 6.1 92 0.5 SE 2 4 1 2 1023.0 1023.0 0.0
29/12:30am 7.8 6.6 6.6 92 0.6 ESE 2 2 1 1 1023.0 1023.0 0.0
29/12:00am 7.7 6.1 6.3 91 0.6 SE 4 4 2 2 1023.1 1023.1 0.0
 
Date/Time
EST
Temp
°C
App
Temp
°C
Dew
Point
°C
Rel
Hum
%
Delta-T
°C
Wind Press
QNH
hPa
Press
MSL
hPa
Rain since
9am
mm
Dir  Spd
km/h
Gust
km/h
Spd
kts
Gust
kts
28/11:30pm 8.3 6.8 6.6 89 0.8 SSE 4 4 2 2 1023.3 1023.3 0.0
28/11:00pm 9.1 7.8 7.5 90 0.8 SE 4 6 2 3 1023.4 1023.4 0.0
28/10:30pm 9.0 8.2 8.1 94 0.4 SSE 2 4 1 2 1023.5 1023.5 0.0
28/10:00pm 7.2 6.3 6.0 92 0.5 CALM 0 4 0 2 1023.7 1023.7 0.0
28/09:30pm 7.9 7.1 6.4 90 0.7 CALM 0 0 0 0 1023.7 1023.7 0.0
28/09:00pm 8.7 7.9 6.7 87 0.9 CALM 0 0 0 0 1023.8 1023.8 0.0
28/08:30pm 9.4 8.6 6.7 83 1.3 CALM 0 0 0 0 1023.8 1023.8 0.0
28/08:00pm 10.9 10.3 7.2 78 1.8 CALM 0 2 0 1 1023.6 1023.6 0.0
28/07:30pm 11.0 10.4 7.3 78 1.8 CALM 0 0 0 0 1023.6 1023.6 0.0
28/07:00pm 12.5 11.9 7.4 71 2.5 CALM 0 0 0 0 1023.2 1023.2 0.0
28/06:30pm 15.0 13.5 8.3 64 3.4 ENE 6 7 3 4 1022.7 1022.8 0.0
28/06:00pm 15.8 14.2 7.8 59 4.0 ENE 6 7 3 4 1022.4 1022.5 0.0
28/05:30pm 17.9 16.6 7.6 51 5.2 NE 4 7 2 4 1022.0 1022.1 0.0
28/05:00pm 19.6 17.9 7.4 45 6.2 NNE 6 7 3 4 1021.9 1022.0 0.0
28/04:30pm 21.3 20.0 7.5 41 7.1 NW 4 7 2 4 1021.6 1021.7 0.0
28/04:00pm 21.6 19.8 7.1 39 7.4 NW 6 13 3 7 1021.5 1021.6 0.0
28/03:30pm 21.5 19.1 7.0 39 7.4 W 9 11 5 6 1021.5 1021.6 0.0
28/03:00pm 21.9 20.3 6.2 36 7.9 W 4 9 2 5 1021.4 1021.4 0.0
28/02:30pm 21.5 19.5 7.3 40 7.3 NW 7 11 4 6 1021.4 1021.4 0.0
28/02:00pm 21.9 19.9 7.0 38 7.6 NNW 7 15 4 8 1021.5 1021.6 0.0
28/01:30pm 21.9 19.8 6.6 37 7.8 NNE 7 11 4 6 1021.6 1021.7 0.0
28/01:00pm 22.0 20.1 7.4 39 7.5 N 7 15 4 8 1022.0 1022.1 0.0
28/12:30pm 20.7 18.7 7.3 42 6.9 E 7 17 4 9 1022.4 1022.5 0.0
28/12:00pm 20.9 19.5 7.2 41 7.0 WSW 4 9 2 5 1023.1 1023.1 0.0
28/11:30am 19.5 17.4 5.6 40 6.8 WSW 6 9 3 5 1023.5 1023.5 0.0
28/11:00am 18.5 16.1 5.4 42 6.4 SW 7 15 4 8 1023.9 1023.9 0.0
28/10:30am 17.5 15.8 5.8 46 5.7 SW 4 9 2 5 1024.3 1024.3 0.0
28/10:00am 16.2 14.1 6.6 53 4.7 WSW 7 9 4 5 1024.4 1024.4 0.0
28/09:30am 14.0 12.5 6.8 62 3.5 W 4 7 2 4 1024.5 1024.5 0.0
28/09:00am 10.7 9.2 6.6 76 1.9 SW 4 6 2 3 1024.5 1024.5 0.0
28/08:30am 9.3 8.4 6.0 80 1.5 CALM 0 0 0 0 1024.2 1024.2 0.0
28/08:00am 6.8 5.6 4.5 85 1.0 CALM 0 2 0 1 1024.3 1024.3 0.0
28/07:30am 4.8 3.5 3.9 94 0.4 CALM 0 0 0 0 1024.0 1024.0 0.0
28/07:00am 3.3 1.3 2.4 94 0.4 SSE 2 4 1 2 1023.4 1023.4 0.0
28/06:30am 3.1 1.0 1.8 91 0.5 E 2 2 1 1 1022.9 1022.9 0.0
28/06:00am 4.3 2.1 3.1 92 0.5 E 4 6 2 3 1022.6 1022.7 0.0
28/05:30am 4.3 2.5 3.3 93 0.4 SSE 2 4 1 2 1022.4 1022.5 0.0
28/05:00am 3.5 1.4 2.0 90 0.6 ESE 2 4 1 2 1022.1 1022.2 0.0
28/04:30am 4.6 2.7 2.9 89 0.7 SE 2 4 1 2 1021.8 1021.9 0.0
28/04:00am 5.5 3.7 3.5 87 0.8 S 2 4 1 2 1021.5 1021.6 0.0
28/03:30am 5.5 3.3 3.5 87 0.8 ESE 4 6 2 3 1021.5 1021.6 0.0
28/03:00am 4.8 2.4 4.4 97 0.2 E 6 7 3 4 1021.7 1021.8 0.0
28/02:30am 3.6 1.7 2.7 94 0.4 S 2 4 1 2 1021.9 1022.0 0.0
28/02:00am 4.0 2.5 3.1 94 0.4 CALM 0 0 0 0 1022.0 1022.1 0.0
28/01:30am 3.8 2.3 2.8 93 0.4 CALM 0 0 0 0 1022.3 1022.4 0.0
28/01:00am 4.5 3.1 3.5 93 0.4 CALM 0 0 0 0 1022.2 1022.3 0.0
28/12:30am 4.6 3.2 3.3 91 0.5 CALM 0 0 0 0 1021.9 1022.0 0.0
28/12:00am 4.3 2.4 2.8 90 0.6 ESE 2 4 1 2 1021.8 1021.9 0.0
 
Date/Time
EST
Temp
°C
App
Temp
°C
Dew
Point
°C
Rel
Hum
%
Delta-T
°C
Wind Press
QNH
hPa
Press
MSL
hPa
Rain since
9am
mm
Dir  Spd
km/h
Gust
km/h
Spd
kts
Gust
kts
27/11:30pm 5.9 4.2 4.2 89 0.7 ESE 2 6 1 3 1021.7 1021.8 0.0
27/11:00pm 6.5 5.3 4.5 87 0.9 CALM 0 2 0 1 1021.5 1021.6 0.0
27/10:30pm 7.8 5.9 4.9 82 1.3 ENE 4 7 2 4 1021.4 1021.4 0.0
27/10:00pm 7.7 5.8 4.7 81 1.3 ENE 4 9 2 5 1021.2 1021.2 0.0
27/09:30pm 7.5 5.9 4.6 82 1.3 E 2 7 1 4 1021.1 1021.1 0.0

Latest Capital City Observations: Canberra | Sydney | Melbourne | Brisbane | Adelaide | Perth | Hobart | Darwin

Other Formats:

Comma delimited format used in spreadsheet applications
http://www.bom.gov.au/fwo/IDQ60901/IDQ60901.95575.axf

JavaScript Object Notation format (JSON) in row-major order
http://www.bom.gov.au/fwo/IDQ60901/IDQ60901.95575.json